Time;durP1;ratioP1;P1;durP2;ratioP2;P2;SDS_P1;SDS_P2;PMS_P1;PMS_P2;Temp;Humidity;BMP_temperature;BMP_pressure;BME280_temperature;BME280_humidity;BME280_pressure;Samples;Min_cycle;Max_cycle;Signal;HPM_P1;HPM_P2
2021/10/07 00:02:03;;;;;;;17.80;6.60;;;;;;;12.68;87.76;100974.73;113226;1198;24090;-59
2021/10/07 00:04:32;;;;;;;16.30;6.10;;;;;;;12.67;87.74;100975.64;113228;1198;22458;-60
2021/10/07 00:07:00;;;;;;;17.60;6.90;;;;;;;12.65;87.73;100973.41;113139;1198;25057;-58
2021/10/07 00:09:28;;;;;;;16.70;6.40;;;;;;;12.65;87.84;100976.88;113289;1198;24072;-60
2021/10/07 00:11:56;;;;;;;13.00;5.10;;;;;;;12.65;87.94;100974.98;113169;1198;25010;-58
2021/10/07 00:14:24;;;;;;;14.20;5.50;;;;;;;12.64;87.82;100970.38;113423;1193;22412;-59
2021/10/07 00:16:53;;;;;;;13.20;5.30;;;;;;;12.63;87.80;100967.70;113283;1198;25101;-60
2021/10/07 00:19:21;;;;;;;17.70;6.40;;;;;;;12.62;87.78;100969.26;113247;1198;22468;-60
2021/10/07 00:21:50;;;;;;;14.70;5.60;;;;;;;12.62;87.87;100967.23;113331;1198;22453;-59
2021/10/07 00:24:18;;;;;;;14.10;5.90;;;;;;;12.61;87.89;100968.06;113238;1198;22448;-59
2021/10/07 00:26:47;;;;;;;14.00;5.00;;;;;;;12.60;88.03;100968.19;113278;1198;22450;-62
2021/10/07 00:32:13;;;;;;;16.60;5.90;;;;;;;12.57;88.15;100968.40;112549;1202;24115;-61
2021/10/07 00:35:02;;;;;;;18.90;6.50;;;;;;;12.58;88.15;100967.48;112688;1187;22482;-61
2021/10/07 00:40:13;;;;;;;18.20;7.20;;;;;;;12.60;88.23;100971.45;112544;1202;23523;-60
2021/10/07 00:42:41;;;;;;;18.70;7.90;;;;;;;12.60;88.10;100975.02;112496;1196;22389;-62
2021/10/07 00:45:10;;;;;;;15.80;6.20;;;;;;;12.60;88.19;100974.81;112427;1197;22445;-61
2021/10/07 00:47:38;;;;;;;16.70;6.20;;;;;;;12.60;88.06;100975.16;112645;1202;22470;-58
2021/10/07 00:50:08;;;;;;;18.60;6.40;;;;;;;12.60;88.22;100975.39;112515;1196;25058;-60
2021/10/07 00:52:37;;;;;;;20.70;6.20;;;;;;;12.60;88.09;100977.41;112704;1201;22487;-58
2021/10/07 00:55:08;;;;;;;19.90;6.00;;;;;;;12.61;88.05;100977.64;112542;1201;23752;-59
2021/10/07 00:57:36;;;;;;;15.80;5.90;;;;;;;12.62;88.13;100975.02;112692;1202;22448;-60
2021/10/07 01:00:06;;;;;;;14.10;4.90;;;;;;;12.62;88.02;100972.52;112519;1195;22434;-61
2021/10/07 01:02:34;;;;;;;16.30;5.30;;;;;;;12.62;88.09;100970.17;112968;1201;24220;-58
2021/10/07 01:05:03;;;;;;;18.30;5.20;;;;;;;12.61;87.98;100966.84;112584;1196;24092;-61
2021/10/07 01:07:31;;;;;;;16.40;6.40;;;;;;;12.60;88.00;100966.73;112871;1197;23794;-61
2021/10/07 01:10:00;;;;;;;14.00;4.80;;;;;;;12.59;88.08;100964.70;113028;1193;22442;-60
2021/10/07 01:12:28;;;;;;;16.60;6.10;;;;;;;12.56;88.13;100969.18;113202;1198;25368;-60
2021/10/07 01:14:58;;;;;;;12.30;5.50;;;;;;;12.55;88.07;100968.03;113265;1193;22556;-60
2021/10/07 01:17:28;;;;;;;15.70;5.60;;;;;;;12.55;88.11;100969.71;113500;1193;23691;-61
2021/10/07 01:19:58;;;;;;;15.20;5.10;;;;;;;12.55;87.93;100973.33;113327;1198;22444;-61
2021/10/07 01:22:29;;;;;;;15.60;4.40;;;;;;;12.55;87.85;100975.56;113285;1198;24167;-58
2021/10/07 01:24:59;;;;;;;20.80;5.00;;;;;;;12.54;87.83;100974.17;113364;1197;25077;-58
2021/10/07 01:27:32;;;;;;;15.10;4.80;;;;;;;12.53;87.92;100970.84;113252;1198;22416;-60
2021/10/07 01:30:03;;;;;;;18.10;5.50;;;;;;;12.52;88.00;100973.71;113315;1198;22449;-60
2021/10/07 01:32:36;;;;;;;14.40;5.80;;;;;;;12.52;87.93;100977.80;113167;1198;22423;-60
2021/10/07 01:35:06;;;;;;;17.80;5.40;;;;;;;12.53;87.91;100977.20;113361;1198;24081;-66
2021/10/07 01:37:34;;;;;;;15.00;5.00;;;;;;;12.53;87.83;100982.77;113188;1193;22454;-61
2021/10/07 01:40:03;;;;;;;15.20;5.00;;;;;;;12.54;87.86;100979.86;113281;1198;22470;-63
2021/10/07 01:42:31;;;;;;;17.40;5.50;;;;;;;12.53;87.85;100979.55;113322;1198;22906;-60
2021/10/07 01:44:59;;;;;;;14.00;4.80;;;;;;;12.52;87.81;100985.75;113173;1198;25125;-58
2021/10/07 01:47:29;;;;;;;15.50;5.10;;;;;;;12.52;87.66;100984.77;113223;1198;22540;-58
2021/10/07 01:49:57;;;;;;;17.90;5.70;;;;;;;12.52;87.71;100984.77;113350;1198;23824;-60
2021/10/07 01:52:25;;;;;;;17.60;4.80;;;;;;;12.51;87.82;100982.21;113254;1184;24084;-59
2021/10/07 01:54:53;;;;;;;14.30;5.20;;;;;;;12.50;87.82;100986.49;113242;1198;25031;-59
2021/10/07 01:57:21;;;;;;;15.40;4.30;;;;;;;12.49;87.76;100989.18;113161;1198;25175;-61
2021/10/07 01:59:49;;;;;;;11.90;4.40;;;;;;;12.48;87.63;100992.55;113341;1198;22422;-60
2021/10/07 02:02:17;;;;;;;17.30;5.10;;;;;;;12.45;87.68;100991.02;113317;1198;25054;-59
2021/10/07 02:04:48;;;;;;;13.50;4.10;;;;;;;12.44;87.69;100991.30;113242;1198;23000;-58
2021/10/07 02:07:16;;;;;;;13.30;4.80;;;;;;;12.43;87.76;100994.48;113198;1193;22480;-60
2021/10/07 02:09:44;;;;;;;15.40;5.50;;;;;;;12.43;87.92;101001.36;113095;1192;22441;-58
2021/10/07 02:12:12;;;;;;;13.80;4.40;;;;;;;12.43;87.75;101007.33;113236;1198;24098;-58
2021/10/07 02:14:41;;;;;;;13.30;4.20;;;;;;;12.43;87.58;101008.86;113411;1198;25183;-60
2021/10/07 02:17:09;;;;;;;13.40;4.30;;;;;;;12.42;87.54;101013.71;113196;1198;24110;-59
2021/10/07 02:19:38;;;;;;;11.40;3.50;;;;;;;12.41;87.54;101016.64;113177;1198;25064;-59
2021/10/07 02:22:06;;;;;;;17.20;3.90;;;;;;;12.40;87.40;101013.10;113197;1193;22449;-58
2021/10/07 02:24:35;;;;;;;13.60;3.60;;;;;;;12.38;87.27;101009.40;113375;1193;25112;-60
2021/10/07 02:27:03;;;;;;;12.50;3.30;;;;;;;12.38;87.38;101009.36;113335;1198;23778;-57
2021/10/07 02:29:32;;;;;;;11.50;3.20;;;;;;;12.37;87.38;101014.27;113502;1198;22555;-60
2021/10/07 02:32:00;;;;;;;9.90;3.30;;;;;;;12.36;87.30;101014.25;113150;1198;25369;-59
2021/10/07 02:34:28;;;;;;;13.30;3.60;;;;;;;12.35;87.38;101015.10;113135;1198;25149;-59
2021/10/07 02:36:56;;;;;;;11.30;3.10;;;;;;;12.34;87.30;101015.95;113161;1193;25480;-61
2021/10/07 02:39:24;;;;;;;11.70;3.10;;;;;;;12.33;87.33;101016.80;113250;1198;22430;-59
2021/10/07 02:41:52;;;;;;;13.10;3.00;;;;;;;12.33;87.25;101016.73;113263;1198;22474;-59
2021/10/07 02:44:20;;;;;;;9.00;3.00;;;;;;;12.32;87.19;101025.63;113240;1198;24311;-60
2021/10/07 02:46:48;;;;;;;15.30;3.40;;;;;;;12.32;87.24;101027.26;113159;1198;22719;-61
2021/10/07 02:49:16;;;;;;;12.10;3.10;;;;;;;12.30;87.14;101025.17;113091;1198;22435;-60
2021/10/07 02:51:44;;;;;;;10.60;3.50;;;;;;;12.30;87.10;101031.11;113219;1193;22554;-58
2021/10/07 02:54:13;;;;;;;8.40;2.90;;;;;;;12.28;87.17;101032.00;113333;1198;22446;-60
2021/10/07 02:56:42;;;;;;;11.30;3.10;;;;;;;12.26;87.08;101034.16;113316;1198;22430;-58
2021/10/07 02:59:10;;;;;;;9.60;3.30;;;;;;;12.25;87.07;101035.59;113144;1198;23670;-59
2021/10/07 03:01:38;;;;;;;9.00;2.60;;;;;;;12.23;87.06;101038.60;113271;1198;22443;-59
2021/10/07 03:04:06;;;;;;;12.90;3.40;;;;;;;12.21;87.05;101037.17;113270;1198;25449;-59
2021/10/07 03:06:33;;;;;;;11.30;3.30;;;;;;;12.19;87.15;101039.02;113194;1198;24060;-61
2021/10/07 03:09:02;;;;;;;15.60;3.60;;;;;;;12.18;87.17;101041.42;113118;1198;22529;-59
2021/10/07 03:11:30;;;;;;;13.30;4.10;;;;;;;12.16;87.15;101041.34;113230;1198;24050;-58
2021/10/07 03:13:59;;;;;;;13.70;3.40;;;;;;;12.15;87.19;101045.84;113208;1198;22420;-58
2021/10/07 03:16:28;;;;;;;11.40;3.40;;;;;;;12.14;87.20;101049.44;113273;1198;24043;-58
2021/10/07 03:18:58;;;;;;;11.10;2.80;;;;;;;12.13;87.17;101051.31;113151;1198;22443;-58
2021/10/07 03:21:26;;;;;;;13.90;3.60;;;;;;;12.13;87.24;101057.60;113177;1198;22804;-58
2021/10/07 03:23:54;;;;;;;12.80;3.10;;;;;;;12.13;87.29;101055.23;113186;1198;25159;-59
2021/10/07 03:26:22;;;;;;;11.10;2.90;;;;;;;12.12;87.31;101055.98;113036;1193;23407;-61
2021/10/07 03:28:50;;;;;;;8.40;2.80;;;;;;;12.12;87.32;101059.23;113074;1193;23440;-58
2021/10/07 03:31:20;;;;;;;12.60;3.30;;;;;;;12.10;87.39;101061.73;113014;1192;22432;-62
2021/10/07 03:33:48;;;;;;;11.80;3.90;;;;;;;12.10;87.31;101061.21;113215;1198;22436;-58
2021/10/07 03:36:16;;;;;;;11.20;3.10;;;;;;;12.09;87.29;101064.39;113137;1198;22473;-61
2021/10/07 03:38:44;;;;;;;8.50;3.00;;;;;;;12.07;87.24;101063.68;113172;1197;22493;-60
2021/10/07 03:41:13;;;;;;;14.30;3.40;;;;;;;12.05;87.45;101067.98;113270;1198;22432;-61
2021/10/07 03:43:41;;;;;;;11.40;3.30;;;;;;;12.04;87.56;101064.77;113177;1198;24095;-58
2021/10/07 03:46:09;;;;;;;11.10;3.40;;;;;;;12.02;87.53;101072.20;113046;1198;25188;-60
2021/10/07 03:48:37;;;;;;;13.70;3.40;;;;;;;12.00;87.44;101078.61;113179;1198;25254;-58
2021/10/07 03:51:05;;;;;;;13.30;3.90;;;;;;;11.99;87.59;101084.44;113228;1193;22446;-61
2021/10/07 03:53:33;;;;;;;11.70;3.70;;;;;;;11.98;87.72;101081.98;113219;1193;22540;-59
2021/10/07 03:56:02;;;;;;;11.60;3.90;;;;;;;11.98;87.78;101085.58;113238;1177;24070;-59
2021/10/07 03:58:30;;;;;;;13.00;3.60;;;;;;;11.98;87.78;101084.93;113210;1198;22449;-60
2021/10/07 04:00:58;;;;;;;19.20;4.70;;;;;;;11.98;87.69;101087.27;113206;1198;24074;-60
2021/10/07 04:03:27;;;;;;;10.80;3.10;;;;;;;11.98;87.73;101090.31;113172;1198;24070;-59
2021/10/07 04:05:56;;;;;;;17.10;3.60;;;;;;;11.98;87.94;101092.71;113135;1198;22416;-64
2021/10/07 04:08:24;;;;;;;12.50;3.60;;;;;;;11.98;87.85;101096.06;113165;1193;22437;-61
2021/10/07 04:10:52;;;;;;;9.80;3.40;;;;;;;11.99;87.90;101100.83;113246;1198;24205;-61
2021/10/07 04:13:23;;;;;;;11.80;4.30;;;;;;;11.99;87.80;101100.67;113324;1198;24137;-60
2021/10/07 04:15:50;;;;;;;;;;;;;;;12.00;87.94;101105.73;113477;1193;22437;-61
2021/10/07 04:18:19;;;;;;;14.70;4.80;;;;;;;12.00;87.98;101108.18;113464;1193;25194;-61
2021/10/07 04:20:50;;;;;;;15.50;4.40;;;;;;;12.01;88.01;101105.77;113439;1198;22434;-60
2021/10/07 04:23:20;;;;;;;12.00;4.40;;;;;;;12.01;88.03;101105.11;113283;1198;22444;-61
2021/10/07 04:25:49;;;;;;;13.70;4.40;;;;;;;12.02;88.08;101107.16;113323;1198;22441;-60
2021/10/07 04:28:17;;;;;;;15.90;5.50;;;;;;;12.02;87.95;101105.64;113350;1198;22431;-60
2021/10/07 04:30:45;;;;;;;15.50;6.40;;;;;;;12.03;88.01;101102.06;113286;1193;22457;-63
2021/10/07 04:33:14;;;;;;;16.50;7.10;;;;;;;12.05;88.04;101107.02;113120;1198;25041;-63
2021/10/07 04:35:42;;;;;;;17.30;7.90;;;;;;;12.09;87.96;101109.89;113150;1198;22575;-62
2021/10/07 04:38:11;;;;;;;22.30;9.40;;;;;;;12.13;88.08;101113.05;113106;1192;25195;-62
2021/10/07 04:40:39;;;;;;;20.00;8.20;;;;;;;12.17;87.90;101116.16;113386;1193;22457;-62
2021/10/07 04:43:07;;;;;;;22.20;10.70;;;;;;;12.19;88.00;101112.36;113563;1192;22446;-62
2021/10/07 04:45:36;;;;;;;27.90;11.90;;;;;;;12.22;88.00;101114.66;113593;1198;22914;-62
2021/10/07 04:48:04;;;;;;;25.20;11.50;;;;;;;12.24;88.11;101113.90;113459;1198;22505;-62
2021/10/07 04:50:32;;;;;;;25.90;11.20;;;;;;;12.26;88.06;101118.13;113785;1198;23779;-62
2021/10/07 04:53:01;;;;;;;24.70;13.00;;;;;;;12.28;88.16;101119.56;113611;1198;22448;-61
2021/10/07 04:55:30;;;;;;;25.80;12.20;;;;;;;12.30;88.01;101124.85;113424;1198;24948;-62
2021/10/07 04:57:58;;;;;;;25.60;10.60;;;;;;;12.31;88.13;101127.37;113491;1198;22444;-61
2021/10/07 05:00:27;;;;;;;27.70;12.30;;;;;;;12.30;88.19;101122.98;113559;1198;22463;-62
2021/10/07 05:02:56;;;;;;;26.70;12.80;;;;;;;12.31;88.29;101124.26;113579;1198;22456;-62
2021/10/07 05:05:24;;;;;;;31.30;13.60;;;;;;;12.30;88.31;101127.14;113835;1193;25409;-62
2021/10/07 05:07:52;;;;;;;27.80;13.00;;;;;;;12.30;88.29;101128.92;113539;1198;23791;-62
2021/10/07 05:10:22;;;;;;;32.80;13.40;;;;;;;12.29;88.23;101132.96;113483;1198;22469;-62
2021/10/07 05:12:50;;;;;;;28.80;12.50;;;;;;;12.29;88.33;101133.13;113756;1198;22845;-61
2021/10/07 05:15:21;;;;;;;29.00;14.10;;;;;;;12.29;88.32;101133.62;113551;1192;23437;-63
2021/10/07 05:17:52;;;;;;;32.50;16.40;;;;;;;12.29;88.48;101130.97;113630;1198;25117;-62
2021/10/07 05:20:21;;;;;;;39.20;18.00;;;;;;;12.29;88.55;101134.84;113593;1193;22481;-61
2021/10/07 05:22:49;;;;;;;27.80;14.30;;;;;;;12.28;88.59;101137.51;113639;1192;24136;-62
2021/10/07 05:25:18;;;;;;;28.20;13.90;;;;;;;12.27;88.51;101139.54;113575;1198;25120;-63
2021/10/07 05:27:46;;;;;;;33.40;14.70;;;;;;;12.27;88.58;101138.82;113563;1198;24081;-65
2021/10/07 05:30:15;;;;;;;33.80;16.60;;;;;;;12.26;88.70;101138.54;113582;1198;22488;-62
2021/10/07 05:32:43;;;;;;;33.80;16.80;;;;;;;12.26;88.83;101140.47;113521;1198;22459;-63
2021/10/07 05:35:11;;;;;;;29.40;15.70;;;;;;;12.26;88.81;101142.70;113602;1197;22456;-63
2021/10/07 05:37:40;;;;;;;30.90;15.90;;;;;;;12.26;88.94;101145.83;113586;1198;25023;-63
2021/10/07 05:40:10;;;;;;;36.20;18.00;;;;;;;12.26;88.98;101151.02;113566;1198;22443;-63
2021/10/07 05:42:39;;;;;;;32.90;19.70;;;;;;;12.27;89.07;101152.04;113684;1198;25087;-62
2021/10/07 05:45:10;;;;;;;36.70;20.20;;;;;;;12.27;89.11;101152.35;113614;1198;22561;-63
2021/10/07 05:47:39;;;;;;;38.30;22.50;;;;;;;12.28;89.02;101154.92;113689;1198;24126;-62
2021/10/07 05:50:11;;;;;;;40.90;21.60;;;;;;;12.29;89.03;101160.31;113596;1198;23379;-63
2021/10/07 05:52:39;;;;;;;38.20;19.20;;;;;;;12.30;89.21;101164.60;113598;1198;22453;-62
2021/10/07 05:55:10;;;;;;;46.10;22.80;;;;;;;12.32;89.39;101166.69;113552;1198;25496;-62
2021/10/07 05:57:39;;;;;;;41.20;20.30;;;;;;;12.33;89.26;101160.56;113556;1198;25221;-61
2021/10/07 06:00:10;;;;;;;40.20;19.40;;;;;;;12.34;89.28;101165.39;113683;1198;25095;-63
2021/10/07 06:02:39;;;;;;;32.90;15.80;;;;;;;12.36;89.35;101167.30;113663;1198;22413;-62
2021/10/07 06:05:10;;;;;;;36.70;17.80;;;;;;;12.37;89.31;101174.12;113575;1198;22425;-62
2021/10/07 06:07:38;;;;;;;35.50;16.70;;;;;;;12.40;89.34;101174.55;114639;1198;22449;-62
2021/10/07 06:10:09;;;;;;;34.90;14.30;;;;;;;12.43;89.51;101180.42;113455;1198;25013;-62
2021/10/07 06:12:37;;;;;;;30.90;15.80;;;;;;;12.45;89.20;101177.92;113839;1198;25108;-61
2021/10/07 06:15:08;;;;;;;30.70;15.20;;;;;;;12.47;89.25;101180.63;113552;1198;24013;-65
2021/10/07 06:17:37;;;;;;;39.60;16.70;;;;;;;12.48;89.23;101182.75;113797;1198;22453;-62
2021/10/07 06:20:17;;;;;;;37.30;15.70;;;;;;;12.50;89.38;101192.82;113568;1198;24112;-61
2021/10/07 06:22:48;;;;;;;28.70;14.70;;;;;;;12.52;89.41;101196.25;113597;1198;22488;-62
2021/10/07 06:25:16;;;;;;;37.00;16.50;;;;;;;12.53;89.38;101195.38;113664;1198;22425;-61
2021/10/07 06:27:46;;;;;;;34.70;17.80;;;;;;;12.54;89.31;101202.13;113566;1190;25058;-61
2021/10/07 06:30:15;;;;;;;38.80;19.60;;;;;;;12.56;89.43;101199.89;113699;1198;25121;-61
2021/10/07 06:32:44;;;;;;;36.00;19.40;;;;;;;12.57;89.38;101202.30;113704;1198;22423;-62
2021/10/07 06:35:13;;;;;;;35.60;17.00;;;;;;;12.59;89.34;101205.45;113653;1197;22425;-62
2021/10/07 06:37:42;;;;;;;35.90;18.20;;;;;;;12.60;89.31;101205.48;113567;1198;25221;-61
2021/10/07 06:40:13;;;;;;;35.20;19.60;;;;;;;12.62;89.26;101206.19;113591;1198;23160;-61
2021/10/07 06:42:41;;;;;;;34.80;17.90;;;;;;;12.64;89.29;101209.20;113568;1193;23550;-64
2021/10/07 06:45:11;;;;;;;34.70;17.70;;;;;;;12.67;89.47;101209.30;113562;1193;22428;-62
2021/10/07 06:47:41;;;;;;;38.50;18.70;;;;;;;12.69;89.32;101212.65;113781;1198;22446;-63
2021/10/07 06:50:12;;;;;;;34.90;17.10;;;;;;;12.72;89.33;101209.70;113742;1198;25003;-60
2021/10/07 06:52:41;;;;;;;;;;;;;;;12.74;89.30;101209.30;113694;1198;24098;-61
2021/10/07 06:55:12;;;;;;;34.50;18.40;;;;;;;12.76;89.29;101211.20;113583;1198;23776;-63
2021/10/07 06:57:42;;;;;;;35.20;17.60;;;;;;;12.78;89.33;101211.24;113559;1198;24023;-63
2021/10/07 07:00:12;;;;;;;36.90;19.40;;;;;;;12.82;89.47;101211.80;113717;1198;25737;-60
2021/10/07 07:02:41;;;;;;;37.50;18.70;;;;;;;12.84;89.49;101214.66;113557;1198;24570;-62
2021/10/07 07:05:11;;;;;;;38.00;20.30;;;;;;;12.88;89.55;101214.18;113778;1190;22435;-62
2021/10/07 07:07:39;;;;;;;38.50;19.80;;;;;;;12.91;89.37;101215.08;113724;1198;25686;-62
2021/10/07 07:10:17;;;;;;;43.80;21.10;;;;;;;12.94;89.59;101214.91;113619;1198;25142;-61
2021/10/07 07:12:45;;;;;;;45.60;22.40;;;;;;;12.98;89.39;101222.10;113681;1198;23968;-61
2021/10/07 07:15:15;;;;;;;39.70;20.50;;;;;;;13.02;89.45;101222.48;113547;1198;22552;-62
2021/10/07 07:17:43;;;;;;;47.70;24.10;;;;;;;13.05;89.44;101221.94;113549;1198;24032;-62
2021/10/07 07:20:13;;;;;;;46.60;23.40;;;;;;;13.10;89.59;101224.95;113466;1198;25123;-62
2021/10/07 07:22:41;;;;;;;50.40;23.30;;;;;;;13.14;89.56;101227.62;113595;1198;23113;-62
2021/10/07 07:25:10;;;;;;;40.50;20.90;;;;;;;13.19;89.58;101224.82;113419;1198;25962;-62
2021/10/07 07:27:39;;;;;;;48.30;21.80;;;;;;;13.22;89.31;101224.69;113592;1198;25205;-62
2021/10/07 07:30:08;;;;;;;42.40;21.70;;;;;;;13.24;89.17;101228.09;113334;1192;22435;-60
2021/10/07 07:32:37;;;;;;;39.30;21.80;;;;;;;13.25;88.93;101234.30;113246;1198;24050;-61
2021/10/07 07:35:07;;;;;;;44.10;22.20;;;;;;;13.25;89.07;101236.30;113345;1193;24051;-62
2021/10/07 07:37:35;;;;;;;44.10;22.00;;;;;;;13.25;88.96;101239.03;113681;1198;22795;-62
2021/10/07 07:40:06;;;;;;;41.40;20.90;;;;;;;13.25;88.89;101238.71;113514;1198;22456;-61
2021/10/07 07:42:34;;;;;;;46.00;23.40;;;;;;;13.26;89.02;101243.30;113797;1177;22617;-62
2021/10/07 07:45:03;;;;;;;52.80;24.90;;;;;;;13.28;88.91;101250.98;113570;1191;23248;-62
2021/10/07 07:47:32;;;;;;;52.40;26.50;;;;;;;13.29;88.95;101249.95;113617;1198;22542;-62
2021/10/07 07:50:00;;;;;;;49.10;25.60;;;;;;;13.32;88.90;101254.96;113481;1198;23577;-63
2021/10/07 07:52:28;;;;;;;48.50;26.50;;;;;;;13.34;88.71;101255.02;113513;1198;22552;-62
2021/10/07 07:55:05;;;;;;;49.40;26.00;;;;;;;13.37;88.64;101256.81;113538;1198;25491;-61
2021/10/07 07:57:34;;;;;;;54.30;27.40;;;;;;;13.38;88.54;101255.94;113548;1198;24690;-61
2021/10/07 08:00:04;;;;;;;54.40;26.80;;;;;;;13.40;88.57;101256.79;113594;1198;22444;-62
2021/10/07 08:02:32;;;;;;;46.10;24.80;;;;;;;13.43;88.55;101258.73;113863;1192;22736;-62
2021/10/07 08:05:01;;;;;;;46.60;25.50;;;;;;;13.45;88.42;101260.02;113494;1198;25086;-61
2021/10/07 08:07:29;;;;;;;50.50;24.60;;;;;;;13.47;88.50;101261.76;113383;1193;23087;-61
2021/10/07 08:09:58;;;;;;;47.70;24.50;;;;;;;13.51;88.54;101267.00;113484;1193;24145;-61
2021/10/07 08:12:31;;;;;;;47.90;24.40;;;;;;;13.55;88.53;101266.73;113422;1198;22431;-62
2021/10/07 08:15:00;;;;;;;49.60;25.40;;;;;;;13.58;88.48;101265.98;113524;1199;22555;-62
2021/10/07 08:17:31;;;;;;;46.40;24.60;;;;;;;13.63;88.32;101266.47;113483;1198;25082;-63
2021/10/07 08:19:58;;;;;;;;;;;;;;;13.69;88.40;101268.18;113552;1198;23688;-61
2021/10/07 08:22:27;;;;;;;46.70;24.30;;;;;;;13.76;88.53;101273.77;113435;1198;25023;-62
2021/10/07 08:24:55;;;;;;;46.70;25.10;;;;;;;13.82;88.19;101277.10;113481;1198;22559;-61
2021/10/07 08:27:26;;;;;;;44.80;23.80;;;;;;;13.88;88.01;101279.24;113471;1193;22436;-61
2021/10/07 08:29:55;;;;;;;50.30;25.90;;;;;;;13.91;87.71;101283.09;113536;1198;24083;-62
2021/10/07 08:32:24;;;;;;;49.70;25.90;;;;;;;13.96;87.69;101281.06;113786;1198;22456;-62
2021/10/07 08:34:52;;;;;;;51.70;27.30;;;;;;;14.01;87.52;101283.94;113418;1183;24072;-61
2021/10/07 08:37:20;;;;;;;46.60;25.50;;;;;;;14.05;87.38;101282.91;113508;1198;24171;-62
2021/10/07 08:39:49;;;;;;;49.20;27.70;;;;;;;14.09;87.48;101283.10;113508;1198;25114;-62
2021/10/07 08:42:17;;;;;;;46.80;24.90;;;;;;;14.14;87.29;101280.63;113520;1198;25764;-62
2021/10/07 08:44:45;;;;;;;44.20;24.30;;;;;;;14.17;87.06;101281.77;113432;1198;22442;-66
2021/10/07 08:47:16;;;;;;;45.00;23.00;;;;;;;14.19;86.96;101282.94;113467;1198;23755;-62
2021/10/07 08:49:44;;;;;;;44.70;25.00;;;;;;;14.19;86.64;101283.97;113510;1198;24063;-62
2021/10/07 08:52:13;;;;;;;48.20;24.70;;;;;;;14.18;86.46;101282.00;113460;1198;22472;-62
2021/10/07 08:54:42;;;;;;;41.70;23.10;;;;;;;14.19;86.58;101279.98;113366;1192;24388;-63
2021/10/07 08:57:10;;;;;;;46.30;25.60;;;;;;;14.21;86.63;101283.08;113542;1198;26373;-61
2021/10/07 08:59:39;;;;;;;48.10;26.30;;;;;;;14.23;86.50;101284.88;113486;1198;25057;-62
2021/10/07 09:02:07;;;;;;;44.80;24.20;;;;;;;14.25;86.48;101288.68;113505;1198;25939;-61
2021/10/07 09:04:38;;;;;;;44.30;26.10;;;;;;;14.28;86.19;101288.15;113463;1198;22552;-62
2021/10/07 09:07:09;;;;;;;49.60;26.00;;;;;;;14.29;86.00;101292.03;113424;1198;25370;-62
2021/10/07 09:09:42;;;;;;;47.20;25.40;;;;;;;14.32;85.76;101296.57;113715;1192;22427;-62
2021/10/07 09:12:12;;;;;;;50.80;28.80;;;;;;;14.33;85.57;101296.34;113453;1198;24631;-63
2021/10/07 09:14:43;;;;;;;48.30;26.60;;;;;;;14.33;85.18;101297.12;113554;1198;22443;-63
2021/10/07 09:17:14;;;;;;;49.20;26.30;;;;;;;14.34;85.17;101295.39;113364;1198;22440;-61
2021/10/07 09:19:42;;;;;;;;;;;;;;;14.34;85.10;101294.42;113174;1193;22414;-60
2021/10/07 09:22:16;;;;;;;51.60;26.50;;;;;;;14.35;85.10;101300.52;113123;1192;22561;-60
2021/10/07 09:24:46;;;;;;;50.20;26.30;;;;;;;14.36;85.13;101300.39;113113;1193;22445;-61
2021/10/07 09:27:17;;;;;;;47.00;25.30;;;;;;;14.37;85.20;101303.98;113154;1198;24082;-61
2021/10/07 09:29:50;;;;;;;49.30;26.50;;;;;;;14.41;84.96;101301.81;113093;1198;22438;-61
2021/10/07 09:32:32;;;;;;;47.80;26.80;;;;;;;14.42;84.81;101303.37;113088;1193;25026;-61
2021/10/07 09:35:02;;;;;;;51.60;26.70;;;;;;;14.44;84.50;101310.55;113264;1198;25191;-61
2021/10/07 09:37:36;;;;;;;41.50;22.00;;;;;;;14.45;84.16;101308.83;113218;1198;24096;-61
2021/10/07 09:40:09;;;;;;;49.60;26.30;;;;;;;14.40;83.63;101310.33;113395;1198;22444;-62
2021/10/07 09:42:40;;;;;;;46.80;25.40;;;;;;;14.37;83.88;101313.02;113379;1198;22880;-61
2021/10/07 09:45:13;;;;;;;47.90;24.90;;;;;;;14.35;83.87;101314.15;113264;1198;25391;-63
2021/10/07 09:47:44;;;;;;;48.70;27.30;;;;;;;14.35;83.97;101319.44;113412;1198;24519;-61
2021/10/07 09:50:24;;;;;;;49.20;26.50;;;;;;;14.35;83.98;101322.08;113449;1198;24086;-62
2021/10/07 09:52:53;;;;;;;;;;;;;;;14.35;83.69;101321.71;113304;1198;22443;-61
2021/10/07 09:55:25;;;;;;;53.30;28.20;;;;;;;14.30;83.68;101321.92;113208;1198;22449;-62
2021/10/07 09:57:58;;;;;;;43.30;23.70;;;;;;;14.29;83.76;101322.81;113233;1198;24082;-67
2021/10/07 10:00:31;;;;;;;47.90;26.10;;;;;;;14.29;83.62;101324.34;113291;1198;22436;-65
2021/10/07 10:03:01;;;;;;;44.60;25.40;;;;;;;14.29;83.60;101325.88;113340;1198;25710;-66
2021/10/07 10:05:31;;;;;;;47.60;25.90;;;;;;;14.27;83.33;101332.57;113466;1198;24186;-57
2021/10/07 10:08:03;;;;;;;44.80;26.40;;;;;;;14.25;83.29;101336.28;113172;1198;25151;-58
2021/10/07 10:10:31;;;;;;;46.00;25.40;;;;;;;14.24;83.24;101337.89;113191;1183;23791;-56
2021/10/07 10:13:01;;;;;;;47.20;25.80;;;;;;;14.25;83.39;101340.65;113212;1197;25470;-56
2021/10/07 10:15:33;;;;;;;51.50;26.00;;;;;;;14.26;83.43;101338.03;113441;1198;22552;-59
2021/10/07 10:18:06;;;;;;;43.30;25.00;;;;;;;14.26;83.06;101333.80;113342;1198;22441;-58
2021/10/07 10:20:38;;;;;;;44.90;25.90;;;;;;;14.27;83.06;101335.20;113400;1198;22436;-58
2021/10/07 10:23:10;;;;;;;47.50;25.80;;;;;;;14.27;83.11;101336.99;113384;1191;22462;-57
2021/10/07 10:25:54;;;;;;;46.20;26.00;;;;;;;14.28;83.14;101334.64;113184;1193;22415;-56
2021/10/07 10:28:46;;;;;;;51.30;27.00;;;;;;;14.29;82.92;101327.11;113173;1198;25259;-57
2021/10/07 10:31:17;;;;;;;50.70;27.70;;;;;;;14.30;83.00;101327.54;113240;1198;22466;-56
2021/10/07 10:33:48;;;;;;;49.80;25.80;;;;;;;14.35;83.20;101330.52;113183;1198;22416;-56
2021/10/07 10:36:32;;;;;;;47.70;25.60;;;;;;;14.41;82.93;101326.94;113186;1198;25252;-58
2021/10/07 10:39:14;;;;;;;49.10;26.20;;;;;;;14.45;82.72;101328.06;113181;1198;22458;-58
2021/10/07 10:41:49;;;;;;;43.90;26.10;;;;;;;14.51;82.64;101333.54;113220;1198;22764;-59
2021/10/07 10:44:44;;;;;;;48.50;28.30;;;;;;;14.54;82.25;101331.37;113208;1198;24320;-57
2021/10/07 10:47:20;;;;;;;46.20;27.20;;;;;;;14.58;82.23;101332.45;113058;1198;22771;-58
2021/10/07 10:50:11;;;;;;;44.20;26.10;;;;;;;14.64;82.09;101336.97;113205;1198;25064;-57
2021/10/07 10:52:41;;;;;;;;;;;;;;;14.67;81.93;101333.10;113217;1198;25444;-56
2021/10/07 10:55:13;;;;;;;40.70;20.40;;;;;;;14.68;81.75;101337.46;113346;1193;24446;-58
2021/10/07 10:57:43;;;;;;;45.80;25.50;;;;;;;14.70;81.70;101337.90;113273;1198;24130;-58
2021/10/07 11:00:18;;;;;;;44.80;24.00;;;;;;;14.77;81.92;101339.66;113226;1198;22452;-57
2021/10/07 11:02:53;;;;;;;45.60;21.60;;;;;;;14.86;81.75;101335.20;113365;1198;25147;-56
2021/10/07 11:05:24;;;;;;;44.10;24.00;;;;;;;14.99;81.45;101335.34;113196;1193;22514;-55
2021/10/07 11:08:20;;;;;;;43.60;23.60;;;;;;;15.07;81.11;101331.81;113247;1198;22433;-59
2021/10/07 11:10:50;;;;;;;35.90;21.00;;;;;;;15.18;81.16;101339.77;113283;1194;25186;-60
2021/10/07 11:13:21;;;;;;;40.70;21.70;;;;;;;15.23;80.82;101337.05;113578;1198;22424;-58
2021/10/07 11:15:53;;;;;;;40.20;23.20;;;;;;;15.26;80.58;101340.43;113021;1198;24187;-56
2021/10/07 11:18:24;;;;;;;32.30;18.00;;;;;;;15.28;80.14;101340.79;113282;1198;22442;-57
2021/10/07 11:20:58;;;;;;;40.70;22.40;;;;;;;15.23;79.55;101336.48;113276;1198;22461;-61
2021/10/07 11:23:28;;;;;;;39.20;23.40;;;;;;;15.20;79.86;101337.32;113448;1198;22437;-56
2021/10/07 11:25:56;;;;;;;;;;;;;;;15.22;79.83;101339.48;113350;1198;22412;-57